createdAt,value
2023-05-11T00:01:04.174Z,87.03
2023-05-11T00:03:21.623Z,86.82
2023-05-11T00:05:39.089Z,88.28
2023-05-11T00:07:56.370Z,87.89
2023-05-11T00:10:15.549Z,88.13
2023-05-11T00:12:33.240Z,87.34
2023-05-11T00:14:51.432Z,87.70
2023-05-11T00:17:08.725Z,86.76
2023-05-11T00:19:25.944Z,88.20
2023-05-11T00:21:42.856Z,87.17
2023-05-11T00:24:01.179Z,87.56
2023-05-11T00:26:18.506Z,87.55
2023-05-11T00:28:35.749Z,87.63
2023-05-11T00:30:52.975Z,87.42
2023-05-11T00:33:10.182Z,87.63
2023-05-11T00:35:27.251Z,88.73
2023-05-11T00:37:44.575Z,87.44
2023-05-11T00:40:02.316Z,88.29
2023-05-11T00:42:19.555Z,86.92
2023-05-11T00:44:36.579Z,88.50
2023-05-11T00:46:56.711Z,88.32
2023-05-11T00:49:13.994Z,87.63
2023-05-11T00:51:32.304Z,88.73
2023-05-11T00:53:49.330Z,88.98
2023-05-11T00:56:06.671Z,88.26
2023-05-11T00:58:23.913Z,89.04
2023-05-11T01:00:41.287Z,89.20
2023-05-11T01:02:59.306Z,88.96
2023-05-11T01:05:16.634Z,89.01
2023-05-11T01:07:34.899Z,88.10
2023-05-11T01:09:52.554Z,88.31
2023-05-11T01:12:09.920Z,88.52
2023-05-11T01:14:27.253Z,88.12
2023-05-11T01:16:44.457Z,89.34
2023-05-11T01:19:01.816Z,88.33
2023-05-11T01:21:19.530Z,89.21
2023-05-11T01:23:37.531Z,89.09
2023-05-11T01:25:54.758Z,89.28
2023-05-11T01:28:11.992Z,89.19
2023-05-11T01:30:29.287Z,89.26
2023-05-11T01:32:47.251Z,89.50
2023-05-11T01:35:04.882Z,89.06
2023-05-11T01:37:21.858Z,89.77
2023-05-11T01:39:39.146Z,88.54
2023-05-11T01:41:56.806Z,88.93
2023-05-11T01:44:14.112Z,88.78
2023-05-11T01:46:31.595Z,89.59
2023-05-11T01:48:48.651Z,88.15
2023-05-11T01:51:06.335Z,88.56
2023-05-11T01:53:24.008Z,89.08
2023-05-11T01:55:41.336Z,88.61
2023-05-11T01:57:58.647Z,88.72
2023-05-11T02:00:16.204Z,88.51
2023-05-11T02:02:33.710Z,88.86
2023-05-11T02:04:51.074Z,89.72
2023-05-11T02:07:08.357Z,88.98
2023-05-11T02:09:26.915Z,89.74
2023-05-11T02:11:43.964Z,88.84
2023-05-11T02:14:01.021Z,89.23
2023-05-11T02:16:18.351Z,88.92
2023-05-11T02:18:36.067Z,89.24
2023-05-11T02:20:54.080Z,89.60
2023-05-11T02:23:11.685Z,89.12
2023-05-11T02:25:29.002Z,89.20
2023-05-11T02:27:46.195Z,89.52
2023-05-11T02:30:03.436Z,89.98
2023-05-11T02:32:20.727Z,89.84
2023-05-11T02:34:37.661Z,89.69
2023-05-11T02:36:54.973Z,89.29
2023-05-11T02:39:11.869Z,89.34
2023-05-11T02:41:29.089Z,88.85
2023-05-11T02:43:46.162Z,88.81
2023-05-11T02:46:03.452Z,89.14
2023-05-11T02:48:21.122Z,89.25
2023-05-11T02:50:38.359Z,89.34
2023-05-11T02:52:55.699Z,89.17
2023-05-11T02:55:13.010Z,89.53
2023-05-11T02:57:31.699Z,89.47
2023-05-11T02:59:49.030Z,89.37
2023-05-11T03:02:06.490Z,89.26
2023-05-11T03:04:23.954Z,89.31
2023-05-11T03:06:42.042Z,89.01
2023-05-11T03:08:59.401Z,89.85
2023-05-11T03:11:16.869Z,90.12
2023-05-11T03:13:34.190Z,90.06
2023-05-11T03:15:51.408Z,90.34
2023-05-11T03:18:08.761Z,90.17
2023-05-11T03:20:25.750Z,90.17
2023-05-11T03:22:44.037Z,89.79
2023-05-11T03:25:01.314Z,90.56
2023-05-11T03:27:18.321Z,90.39
2023-05-11T03:29:35.653Z,90.04
2023-05-11T03:31:52.911Z,90.12
2023-05-11T03:34:10.231Z,89.82
2023-05-11T03:36:27.546Z,89.73
2023-05-11T03:38:44.604Z,89.76
2023-05-11T03:41:01.886Z,89.71
2023-05-11T03:43:19.157Z,89.69
2023-05-11T03:45:36.439Z,89.44
2023-05-11T03:47:53.759Z,89.91
2023-05-11T03:50:11.064Z,89.96
2023-05-11T03:52:27.934Z,90.19
2023-05-11T03:54:45.182Z,90.43
2023-05-11T03:57:02.472Z,89.98
2023-05-11T03:59:19.729Z,90.35
2023-05-11T04:01:36.869Z,90.44
2023-05-11T04:03:54.355Z,90.17
2023-05-11T04:06:11.615Z,90.23
2023-05-11T04:08:28.821Z,90.55
2023-05-11T04:10:47.057Z,90.16
2023-05-11T04:13:05.063Z,90.34
2023-05-11T04:15:22.316Z,90.08
2023-05-11T04:17:40.026Z,90.20
2023-05-11T04:19:56.994Z,89.99
2023-05-11T04:22:14.282Z,90.64
2023-05-11T04:24:32.021Z,90.34
2023-05-11T04:26:49.287Z,90.61
2023-05-11T04:29:06.505Z,90.19
2023-05-11T04:31:24.583Z,90.04
2023-05-11T04:33:41.966Z,90.19
2023-05-11T04:35:59.290Z,90.34
2023-05-11T04:38:17.614Z,90.64
2023-05-11T04:40:35.302Z,90.42
2023-05-11T04:42:53.034Z,90.52
2023-05-11T04:45:10.236Z,90.75
2023-05-11T04:47:27.757Z,90.46
2023-05-11T04:49:45.392Z,90.40
2023-05-11T04:52:02.663Z,90.28
2023-05-11T04:54:19.970Z,90.45
2023-05-11T04:56:37.244Z,89.80
2023-05-11T04:58:54.471Z,89.62
2023-05-11T05:01:11.824Z,88.82
2023-05-11T05:03:29.104Z,89.27
2023-05-11T05:05:46.464Z,89.10
2023-05-11T05:08:03.782Z,89.75
2023-05-11T05:10:22.138Z,89.75
2023-05-11T05:12:39.417Z,90.44
2023-05-11T05:14:56.840Z,90.42
2023-05-11T05:17:14.156Z,90.55
2023-05-11T05:19:31.477Z,89.37
2023-05-11T05:21:48.703Z,90.82
2023-05-11T05:24:06.039Z,89.86
2023-05-11T05:26:23.276Z,89.66
2023-05-11T05:28:40.518Z,89.42
2023-05-11T05:30:58.789Z,90.27
2023-05-11T05:33:15.770Z,90.41
2023-05-11T05:35:32.676Z,89.75
2023-05-11T05:37:50.879Z,89.12
2023-05-11T05:40:08.164Z,89.49
2023-05-11T05:42:25.394Z,90.34
2023-05-11T05:44:43.409Z,89.60
2023-05-11T05:47:00.666Z,89.35
2023-05-11T05:49:19.217Z,89.70
2023-05-11T05:51:36.565Z,89.48
2023-05-11T05:53:55.226Z,88.26
2023-05-11T05:56:12.569Z,88.67
2023-05-11T05:58:29.796Z,88.20
2023-05-11T06:00:47.065Z,89.04
2023-05-11T06:03:04.469Z,89.21
2023-05-11T06:05:21.379Z,88.65
2023-05-11T06:07:38.640Z,88.70
2023-05-11T06:09:56.282Z,88.93
2023-05-11T06:12:13.603Z,87.72
2023-05-11T06:14:30.480Z,87.68
2023-05-11T06:16:48.160Z,88.14
2023-05-11T06:19:05.217Z,88.85
2023-05-11T06:21:22.852Z,88.33
2023-05-11T06:23:40.210Z,88.03
2023-05-11T06:25:57.458Z,87.42
2023-05-11T06:28:14.742Z,87.39
2023-05-11T06:30:32.339Z,87.18
2023-05-11T06:32:49.300Z,86.09
2023-05-11T06:35:06.645Z,85.97
2023-05-11T06:37:23.973Z,86.95
2023-05-11T06:39:40.951Z,85.80
2023-05-11T06:42:02.900Z,86.47
2023-05-11T06:44:21.495Z,85.99
2023-05-11T06:46:39.123Z,86.56
2023-05-11T06:48:56.460Z,86.79
2023-05-11T06:51:13.734Z,85.73
2023-05-11T06:53:31.338Z,86.96
2023-05-11T06:55:48.630Z,86.32
2023-05-11T06:58:06.280Z,86.21
2023-05-11T07:00:23.968Z,85.54
2023-05-11T07:02:41.314Z,85.82
2023-05-11T07:04:59.117Z,85.58
2023-05-11T07:07:16.369Z,85.33
2023-05-11T07:09:33.598Z,85.55
2023-05-11T07:11:50.826Z,85.93
2023-05-11T07:14:08.081Z,84.87
2023-05-11T07:16:25.476Z,85.26
2023-05-11T07:18:42.788Z,85.13
2023-05-11T07:21:00.163Z,84.00
2023-05-11T07:23:17.534Z,85.44
2023-05-11T07:25:34.856Z,84.54
2023-05-11T07:27:52.190Z,82.17
2023-05-11T07:30:09.464Z,82.69
2023-05-11T07:32:26.790Z,82.83
2023-05-11T07:34:44.085Z,82.94
2023-05-11T07:37:01.359Z,82.43
2023-05-11T07:39:18.283Z,80.38
2023-05-11T07:41:35.608Z,81.75
2023-05-11T07:43:52.955Z,80.09
2023-05-11T07:46:10.286Z,78.91
2023-05-11T07:48:27.531Z,80.05
2023-05-11T07:50:44.800Z,79.45
2023-05-11T07:53:01.841Z,79.63
2023-05-11T07:55:19.648Z,82.22
2023-05-11T07:57:38.332Z,79.62
2023-05-11T07:59:55.668Z,79.79
2023-05-11T08:02:13.472Z,78.84
2023-05-11T08:04:31.650Z,78.31
2023-05-11T08:06:48.943Z,77.41
2023-05-11T08:09:05.854Z,76.64
2023-05-11T08:11:26.107Z,76.29
2023-05-11T08:13:44.587Z,75.99
2023-05-11T08:16:01.658Z,76.22
2023-05-11T08:18:20.130Z,76.21
2023-05-11T08:20:37.582Z,74.23
2023-05-11T08:22:54.754Z,75.45
2023-05-11T08:25:11.713Z,75.40
2023-05-11T08:27:28.987Z,72.54
2023-05-11T08:29:45.977Z,72.88
2023-05-11T08:32:03.312Z,73.18
2023-05-11T08:34:20.836Z,70.86
2023-05-11T08:36:38.585Z,72.02
2023-05-11T08:38:59.062Z,69.97
2023-05-11T08:41:16.332Z,70.61
2023-05-11T08:43:33.857Z,70.05
2023-05-11T08:45:51.190Z,70.77
2023-05-11T08:48:08.459Z,70.03
2023-05-11T08:50:25.727Z,68.46
2023-05-11T08:52:43.337Z,68.79
2023-05-11T08:55:01.023Z,69.14
2023-05-11T08:57:17.946Z,67.25
2023-05-11T08:59:35.145Z,68.69
2023-05-11T09:01:52.266Z,66.30
2023-05-11T09:04:10.841Z,66.35
2023-05-11T09:06:28.631Z,66.52
2023-05-11T09:08:45.957Z,65.93
2023-05-11T09:11:03.355Z,65.85
2023-05-11T09:13:20.732Z,65.40
2023-05-11T09:15:38.277Z,65.97
2023-05-11T09:17:55.798Z,66.20
2023-05-11T09:20:12.726Z,65.06
2023-05-11T09:22:32.044Z,65.84
2023-05-11T09:24:50.449Z,67.16
2023-05-11T09:27:08.377Z,67.19
2023-05-11T09:29:30.588Z,65.86
2023-05-11T09:31:47.915Z,64.89
2023-05-11T09:34:05.257Z,64.96
2023-05-11T09:36:22.657Z,65.55
2023-05-11T09:38:39.948Z,63.92
2023-05-11T09:40:57.613Z,64.76
2023-05-11T09:43:15.928Z,64.69
2023-05-11T09:45:33.156Z,64.97
2023-05-11T09:47:50.450Z,65.22
2023-05-11T09:50:08.170Z,65.45
2023-05-11T09:52:25.371Z,66.70
2023-05-11T09:54:43.781Z,66.82
2023-05-11T09:57:01.017Z,63.78
2023-05-11T09:59:22.344Z,63.53
2023-05-11T10:01:39.679Z,62.07
2023-05-11T10:04:08.924Z,63.72
2023-05-11T10:06:31.131Z,63.81
2023-05-11T10:08:49.273Z,62.67
2023-05-11T10:11:06.878Z,61.33
2023-05-11T10:13:25.251Z,60.96
2023-05-11T10:15:43.816Z,61.28
2023-05-11T10:18:03.409Z,61.83
2023-05-11T10:20:21.112Z,61.12
2023-05-11T10:22:38.823Z,62.17
2023-05-11T10:24:56.130Z,61.14
2023-05-11T10:27:13.757Z,62.99
2023-05-11T10:29:30.979Z,59.95
2023-05-11T10:31:48.150Z,60.43
2023-05-11T10:34:05.469Z,59.20
2023-05-11T10:36:22.548Z,61.22
2023-05-11T10:38:39.894Z,62.12
2023-05-11T10:40:57.181Z,61.22
2023-05-11T10:43:14.116Z,60.49
2023-05-11T10:45:31.105Z,59.72
2023-05-11T10:47:48.646Z,59.04
2023-05-11T10:50:06.722Z,57.44
2023-05-11T10:52:24.047Z,58.54
2023-05-11T10:54:42.239Z,59.29
2023-05-11T10:56:59.561Z,59.98
2023-05-11T10:59:16.664Z,58.44
2023-05-11T11:01:33.756Z,59.59
2023-05-11T11:03:50.715Z,61.13
2023-05-11T11:06:08.136Z,59.65
2023-05-11T11:08:26.241Z,59.52
2023-05-11T11:10:43.185Z,58.37
2023-05-11T11:13:00.132Z,58.47
2023-05-11T11:15:17.298Z,57.11
2023-05-11T11:17:35.244Z,58.09
2023-05-11T11:19:53.898Z,58.61
2023-05-11T11:22:11.141Z,58.92
2023-05-11T11:24:28.495Z,59.05
2023-05-11T11:26:46.923Z,59.25
2023-05-11T11:29:03.892Z,60.47
2023-05-11T11:31:21.210Z,58.55
2023-05-11T11:33:38.459Z,60.05
2023-05-11T11:35:56.052Z,59.75
2023-05-11T11:38:13.275Z,59.17
2023-05-11T11:40:39.326Z,58.87
2023-05-11T11:43:04.404Z,58.29
2023-05-11T11:45:21.838Z,58.79
2023-05-11T11:47:40.156Z,56.14
2023-05-11T11:49:57.544Z,57.00
2023-05-11T11:52:14.549Z,56.53
2023-05-11T11:54:31.811Z,58.25
2023-05-11T11:56:49.028Z,56.73
2023-05-11T11:59:06.047Z,58.45
2023-05-11T12:01:22.924Z,56.55
2023-05-11T12:03:40.237Z,59.23
2023-05-11T12:05:57.549Z,56.81
2023-05-11T12:08:14.654Z,58.78
2023-05-11T12:10:31.633Z,58.34
2023-05-11T12:12:48.965Z,57.40
2023-05-11T12:15:06.887Z,58.57
2023-05-11T12:17:24.185Z,59.01
2023-05-11T12:19:41.291Z,58.44
2023-05-11T12:21:59.011Z,58.28
2023-05-11T12:24:17.102Z,57.65
2023-05-11T12:26:34.532Z,60.25
2023-05-11T12:28:51.716Z,59.50
2023-05-11T12:31:09.329Z,60.47
2023-05-11T12:33:26.689Z,58.95
2023-05-11T12:35:44.571Z,58.42
2023-05-11T12:38:01.517Z,58.83
2023-05-11T12:40:18.785Z,58.80
2023-05-11T12:42:36.053Z,60.72
2023-05-11T12:44:53.026Z,57.64
2023-05-11T12:47:10.719Z,57.82
2023-05-11T12:49:27.735Z,58.88
2023-05-11T12:51:45.696Z,58.69
2023-05-11T12:54:02.920Z,58.49
2023-05-11T12:56:20.451Z,59.36
2023-05-11T12:58:38.284Z,59.21
2023-05-11T13:00:55.994Z,59.90
2023-05-11T13:03:14.388Z,59.57
2023-05-11T13:05:31.516Z,58.94
2023-05-11T13:07:48.881Z,58.12
2023-05-11T13:10:06.351Z,59.29
2023-05-11T13:12:23.485Z,59.91
2023-05-11T13:14:40.630Z,61.44
2023-05-11T13:16:59.010Z,58.48
2023-05-11T13:19:16.387Z,58.13
2023-05-11T13:21:33.767Z,59.46
2023-05-11T13:23:51.269Z,60.32
2023-05-11T13:26:08.608Z,59.55
2023-05-11T13:28:25.697Z,59.35
2023-05-11T13:30:44.154Z,61.67
2023-05-11T13:33:01.461Z,60.55
2023-05-11T13:35:20.070Z,59.28
2023-05-11T13:37:37.481Z,59.84
2023-05-11T13:39:56.951Z,60.51
2023-05-11T13:42:14.390Z,62.31
2023-05-11T13:44:32.803Z,59.67
2023-05-11T13:46:49.842Z,60.58
2023-05-11T13:49:07.176Z,61.70
2023-05-11T13:51:24.466Z,61.35
2023-05-11T13:53:42.048Z,59.63
2023-05-11T13:55:59.436Z,60.71
2023-05-11T13:58:16.853Z,58.04
2023-05-11T14:00:35.542Z,57.26
2023-05-11T14:02:53.112Z,59.00
2023-05-11T14:05:10.740Z,58.16
2023-05-11T14:07:39.011Z,58.96
2023-05-11T14:10:03.613Z,57.72
2023-05-11T14:12:21.173Z,58.69
2023-05-11T14:14:38.700Z,60.08
2023-05-11T14:16:55.629Z,59.48
2023-05-11T14:19:13.019Z,58.59
2023-05-11T14:21:30.387Z,58.45
2023-05-11T14:24:01.989Z,60.21
2023-05-11T14:26:25.100Z,59.02
2023-05-11T14:28:43.434Z,59.20
2023-05-11T14:31:01.335Z,59.24
2023-05-11T14:33:18.686Z,59.01
2023-05-11T14:35:38.394Z,59.31
2023-05-11T14:37:56.866Z,59.76
2023-05-11T14:40:15.030Z,59.85
2023-05-11T14:42:32.362Z,62.01
2023-05-11T14:44:49.693Z,62.28
2023-05-11T14:47:07.072Z,61.19
2023-05-11T14:49:24.074Z,61.84
2023-05-11T14:51:41.158Z,62.22
2023-05-11T14:53:58.213Z,62.16
2023-05-11T14:56:15.092Z,62.01
2023-05-11T14:58:32.395Z,63.48
2023-05-11T15:00:50.656Z,62.17
2023-05-11T15:03:07.721Z,63.88
2023-05-11T15:05:24.776Z,62.30
2023-05-11T15:07:42.202Z,63.56
2023-05-11T15:09:59.554Z,63.29
2023-05-11T15:12:16.857Z,64.29
2023-05-11T15:14:34.542Z,64.49
2023-05-11T15:16:51.483Z,66.11
2023-05-11T15:19:08.492Z,66.12
2023-05-11T15:21:26.520Z,70.99
2023-05-11T15:23:43.794Z,73.13
2023-05-11T15:26:01.023Z,74.84
2023-05-11T15:28:18.257Z,77.79
2023-05-11T15:30:36.144Z,79.86
2023-05-11T15:32:54.379Z,78.43
2023-05-11T15:35:11.804Z,80.82
2023-05-11T15:37:29.081Z,80.80
2023-05-11T15:39:46.325Z,82.99
2023-05-11T15:42:03.652Z,83.88
2023-05-11T15:44:20.621Z,84.99
2023-05-11T15:46:38.281Z,86.31
2023-05-11T15:48:56.931Z,87.32
2023-05-11T15:51:16.654Z,86.88
2023-05-11T15:53:33.556Z,86.38
2023-05-11T15:55:50.569Z,87.28
2023-05-11T15:58:07.821Z,88.49
2023-05-11T16:00:24.735Z,89.25
2023-05-11T16:02:41.766Z,89.17
2023-05-11T16:04:59.656Z,88.00
2023-05-11T16:07:16.901Z,88.46
2023-05-11T16:09:37.538Z,88.09
2023-05-11T16:11:55.925Z,89.00
2023-05-11T16:14:12.880Z,86.95
2023-05-11T16:16:30.182Z,88.20
2023-05-11T16:18:47.117Z,88.17
2023-05-11T16:21:04.451Z,87.65
2023-05-11T16:23:21.776Z,88.73
2023-05-11T16:25:38.658Z,87.87
2023-05-11T16:27:55.994Z,87.40
2023-05-11T16:30:23.064Z,88.78
2023-05-11T16:32:41.815Z,87.91
2023-05-11T16:35:00.123Z,87.29
2023-05-11T16:37:17.597Z,88.16
2023-05-11T16:39:34.670Z,87.77
2023-05-11T16:41:52.013Z,89.40
2023-05-11T16:44:09.783Z,88.68
2023-05-11T16:46:27.056Z,88.59
2023-05-11T16:48:44.195Z,87.97
2023-05-11T16:51:01.412Z,89.66
2023-05-11T16:53:19.298Z,89.06
2023-05-11T16:55:39.077Z,89.00
2023-05-11T16:57:59.072Z,88.03
2023-05-11T17:00:16.134Z,90.07
2023-05-11T17:02:34.540Z,89.36
2023-05-11T17:04:51.628Z,90.92
2023-05-11T17:07:09.026Z,89.88
2023-05-11T17:09:26.061Z,90.02
2023-05-11T17:11:43.365Z,89.99
2023-05-11T17:14:00.605Z,89.83
2023-05-11T17:16:18.015Z,90.79
2023-05-11T17:18:35.486Z,90.07
2023-05-11T17:20:52.848Z,88.25
2023-05-11T17:23:11.208Z,89.12
2023-05-11T17:25:28.525Z,89.31
2023-05-11T17:27:45.881Z,89.88
2023-05-11T17:30:03.006Z,88.62
2023-05-11T17:32:20.527Z,89.82
2023-05-11T17:34:37.957Z,89.30
2023-05-11T17:36:55.372Z,91.24
2023-05-11T17:39:14.061Z,91.55
2023-05-11T17:41:31.308Z,91.88
2023-05-11T17:43:48.388Z,92.46
2023-05-11T17:46:05.764Z,93.14
2023-05-11T17:48:22.658Z,93.38
2023-05-11T17:50:39.965Z,92.62
2023-05-11T17:52:58.461Z,92.34
2023-05-11T17:55:15.495Z,91.62
2023-05-11T17:57:32.931Z,92.88
2023-05-11T17:59:50.222Z,92.46
2023-05-11T18:02:08.601Z,93.45
2023-05-11T18:04:25.598Z,92.29
2023-05-11T18:06:42.832Z,93.92
2023-05-11T18:09:00.984Z,92.81
2023-05-11T18:11:18.414Z,92.85
2023-05-11T18:13:35.466Z,92.16
2023-05-11T18:15:52.712Z,92.06
2023-05-11T18:18:09.889Z,92.63
2023-05-11T18:20:27.855Z,92.23
2023-05-11T18:22:45.290Z,93.37
2023-05-11T18:25:02.551Z,93.68
2023-05-11T18:27:19.879Z,94.63
2023-05-11T18:29:37.177Z,94.34
2023-05-11T18:31:58.242Z,93.61
2023-05-11T18:34:15.662Z,93.32
2023-05-11T18:36:32.695Z,93.26
2023-05-11T18:38:49.628Z,93.21
2023-05-11T18:41:07.614Z,91.55
2023-05-11T18:43:27.181Z,90.04
2023-05-11T18:45:44.293Z,93.83
2023-05-11T18:48:03.463Z,92.48
2023-05-11T18:50:21.882Z,92.83
2023-05-11T18:52:38.872Z,92.81
2023-05-11T18:54:56.741Z,91.53
2023-05-11T18:57:14.175Z,93.57
2023-05-11T18:59:31.171Z,92.33
2023-05-11T19:01:49.681Z,92.72
2023-05-11T19:04:07.092Z,93.83
2023-05-11T19:06:24.176Z,94.08
2023-05-11T19:08:42.491Z,92.86
2023-05-11T19:11:00.689Z,94.14
2023-05-11T19:13:18.029Z,92.11
2023-05-11T19:15:35.606Z,90.96
2023-05-11T19:17:52.868Z,92.76
2023-05-11T19:20:12.321Z,90.43
2023-05-11T19:22:29.730Z,92.03
2023-05-11T19:24:47.016Z,93.92
2023-05-11T19:27:07.696Z,93.79
2023-05-11T19:29:24.868Z,93.19
2023-05-11T19:31:42.521Z,93.80
2023-05-11T19:33:59.500Z,93.67
2023-05-11T19:36:16.813Z,93.87
2023-05-11T19:38:34.288Z,93.60
2023-05-11T19:40:51.930Z,93.83
2023-05-11T19:43:09.384Z,94.01
2023-05-11T19:45:26.675Z,93.63
2023-05-11T19:47:44.003Z,93.74
2023-05-11T19:50:02.724Z,95.70
2023-05-11T19:52:19.851Z,94.90
2023-05-11T19:54:37.207Z,95.41
2023-05-11T19:56:54.116Z,95.59
2023-05-11T19:59:11.804Z,94.85
2023-05-11T20:01:29.167Z,95.05
2023-05-11T20:03:47.334Z,95.69
2023-05-11T20:06:04.733Z,94.55
2023-05-11T20:08:22.039Z,95.15
2023-05-11T20:10:39.440Z,96.22
2023-05-11T20:12:56.371Z,95.47
2023-05-11T20:15:13.263Z,94.60
2023-05-11T20:17:30.677Z,96.25
2023-05-11T20:19:48.029Z,96.96
2023-05-11T20:22:05.674Z,96.79
2023-05-11T20:24:23.036Z,97.22
2023-05-11T20:26:40.106Z,96.52
2023-05-11T20:28:58.437Z,96.25
2023-05-11T20:31:16.130Z,97.38
2023-05-11T20:35:53.801Z,96.53
2023-05-11T20:38:10.922Z,96.05
2023-05-11T20:40:28.133Z,97.23
2023-05-11T20:42:45.063Z,95.19
2023-05-11T20:45:02.416Z,95.86
2023-05-11T20:47:19.691Z,97.14
2023-05-11T20:49:39.567Z,96.69
2023-05-11T20:51:56.719Z,95.67
2023-05-11T20:54:14.279Z,97.05
2023-05-11T20:56:31.292Z,97.12
2023-05-11T20:58:48.478Z,96.22
2023-05-11T21:01:05.352Z,96.94
2023-05-11T21:03:22.491Z,96.69
2023-05-11T21:05:39.808Z,96.83
2023-05-11T21:07:56.795Z,96.18
2023-05-11T21:10:15.110Z,96.93
2023-05-11T21:12:32.328Z,95.27
2023-05-11T21:14:50.670Z,96.60
2023-05-11T21:17:08.039Z,96.57
2023-05-11T21:19:25.276Z,96.16
2023-05-11T21:21:42.387Z,96.62
2023-05-11T21:24:00.388Z,94.97
2023-05-11T21:26:17.708Z,96.20
2023-05-11T21:28:34.913Z,96.11
2023-05-11T21:30:52.263Z,96.97
2023-05-11T21:33:09.619Z,95.73
2023-05-11T21:35:26.978Z,96.80
2023-05-11T21:37:45.155Z,95.89
2023-05-11T21:40:02.363Z,95.62
2023-05-11T21:42:19.679Z,95.83
2023-05-11T21:44:36.767Z,96.84
2023-05-11T21:46:54.740Z,96.51
2023-05-11T21:49:12.079Z,96.54
2023-05-11T21:51:30.178Z,96.75
2023-05-11T21:53:47.485Z,96.14
2023-05-11T21:56:07.275Z,95.52
2023-05-11T21:58:24.277Z,95.60
2023-05-11T22:00:41.369Z,95.94
2023-05-11T22:02:58.450Z,95.68
2023-05-11T22:05:16.699Z,96.47
2023-05-11T22:07:33.874Z,96.06
2023-05-11T22:09:50.839Z,96.34
2023-05-11T22:12:08.043Z,96.15
2023-05-11T22:14:25.440Z,95.05
2023-05-11T22:16:42.543Z,95.52
2023-05-11T22:18:59.930Z,96.86
2023-05-11T22:21:17.869Z,95.31
2023-05-11T22:23:34.982Z,95.49
2023-05-11T22:25:52.361Z,95.90
2023-05-11T22:28:09.668Z,96.40
2023-05-11T22:30:26.882Z,96.14
2023-05-11T22:32:44.629Z,97.07
2023-05-11T22:35:03.091Z,96.77
2023-05-11T22:37:20.377Z,96.34
2023-05-11T22:39:37.657Z,97.90
2023-05-11T22:41:54.945Z,96.99
2023-05-11T22:44:12.185Z,97.54
2023-05-11T22:46:29.594Z,96.83
2023-05-11T22:48:47.388Z,96.00
2023-05-11T22:51:05.730Z,96.03
2023-05-11T22:53:25.164Z,97.38
2023-05-11T22:55:42.325Z,96.02
2023-05-11T22:57:59.267Z,96.13
2023-05-11T23:00:16.857Z,96.36
2023-05-11T23:02:34.213Z,96.51
2023-05-11T23:04:51.523Z,96.25
2023-05-11T23:07:08.876Z,97.78
2023-05-11T23:09:26.129Z,97.17
2023-05-11T23:11:43.324Z,96.77
2023-05-11T23:14:01.043Z,96.88
2023-05-11T23:16:18.277Z,97.26
2023-05-11T23:18:38.052Z,96.95
2023-05-11T23:20:55.285Z,96.58
2023-05-11T23:23:12.234Z,96.26
2023-05-11T23:25:29.510Z,96.15
2023-05-11T23:27:46.813Z,96.43
2023-05-11T23:30:04.146Z,97.68
2023-05-11T23:32:21.098Z,96.52
2023-05-11T23:34:38.355Z,96.77
2023-05-11T23:36:55.914Z,96.72
2023-05-11T23:39:13.680Z,97.27
2023-05-11T23:41:31.015Z,96.84
2023-05-11T23:43:48.716Z,96.49
2023-05-11T23:46:05.914Z,97.00
2023-05-11T23:48:23.247Z,97.23
2023-05-11T23:50:40.540Z,96.85
2023-05-11T23:52:57.845Z,97.85
2023-05-11T23:55:15.153Z,97.62
2023-05-11T23:57:33.384Z,97.10
2023-05-11T23:59:50.389Z,97.21
